Highest pressure

Not for real navigation. The accuracy of this data is not assured See disclaimer for more information



ICAO NAME COUNTRY WIND Kt GUST Kt VIS m TEMP/DEW C BARO METAR
CYCO Coppermine, N. W. T. Canada 4 0 19200 -38/-42 30.77 CYCO 170900Z 33004KT 12SM IC SCT210 M38/M42 A3077 RMK CS4 SLP426
CYCB Cambridge Bay, N. W. T. Canada 14 0 9999 -34/-38 30.76 CYCB 170900Z 31014KT 15SM CAVOK M34/M38 A3076 RMK SLP423
CYZF Yellowknife, N. W. T. Canada 3 0 24000 -30/-34 30.72 CYZF 170900Z 04003KT 15SM FEW080 M30/M34 A3072 RMK AC2 SLP439
CYHY Hay River, N. W. T. Canada 0 0 24000 -31/-35 30.72 CYHY 170900Z 00000KT 15SM SCT100 M31/M35 A3072 RMK AC3 SLP430
CWPX Cape Peel West, N. W. T. Canada 2 0 9999 -31/-35 30.68 CWPX 170900Z AUTO 29002KT 220V350 ////SM //// FEW075 M31/M35 A3068

Show more